Dubai Fortune — H9SA — position and weather

sailwx.info

Track history (hours):
 
Tides and Currents Weather Stations Pressure Air Temp Water Temp Dewpoint Dewpoint Depression Visibility Wind Speed Wind Dir Waves Ship Positions

Dubai Fortune

Last reported at 2014-Jul-19 16:09 UTC. Time now 2014-Jul-22 23:39 UTC.
Position N 34°15' E 139°28'.

Length 188 m; draft 11.8 m.

Type: Cargo ship. MMSI: 353316000.

Date/timePositionNaut miles runAvg speedWind from/ knotsBaromVisibWave heightAir tempDewpointWater temp
2014-Jul-19 16:09N 34°15' E 139°28'9 9.0
2014-Jul-19 15:09N 34°21' E 139°37'610.0
2014-Jul-19 14:32N 34°25' E 139°42'1310.9
2014-Jul-19 13:21N 34°33' E 139°54'7 9.0
2014-Jul-19 12:33N 34°38' E 140°01'1110.1
2014-Jul-19 11:27N 34°45' E 140°11'1011.4
2014-Jul-19 10:33N 34°52' E 140°21'3311.0
2014-Jul-19 07:33N 35°16' E 140°48'10 9.4
2014-Jul-19 06:32N 35°24' E 140°55'9 8.7
2014-Jul-19 05:31N 35°31' E 141°02'19 9.0
2014-Jul-19 03:27N 35°49' E 141°07'1111.6
2014-Jul-19 02:33N 35°58' E 141°00'9 9.5
2014-Jul-19 01:33N 36°00' E 140°49'6 5.7
2014-Jul-19 00:33N 35°57' E 140°43'3 2.5
2014-Jul-18 23:30N 35°55' E 140°41'0 0.0
2014-Jul-18 22:15N 35°55' E 140°41'0 0.0
2014-Jul-18 21:33N 35°55' E 140°41'0 0.0
2014-Jul-18 20:33N 35°55' E 140°41'0 0.0
2014-Jul-18 19:33N 35°55' E 140°41'0 0.0
2014-Jul-18 18:33N 35°55' E 140°41'0 0.0
2014-Jul-18 17:12N 35°55' E 140°41'0 0.0
2014-Jul-18 16:33N 35°55' E 140°41'0 0.0
2014-Jul-18 15:30N 35°55' E 140°41'0 0.0
2014-Jul-18 14:21N 35°55' E 140°41'0 0.0
2014-Jul-18 13:33N 35°55' E 140°41'0 0.0
2014-Jul-18 12:06N 35°55' E 140°41'0 0.0
2014-Jul-18 11:15N 35°55' E 140°41'0 0.0
2014-Jul-18 10:30N 35°55' E 140°41'0 0.0
2014-Jul-18 09:27N 35°55' E 140°41'0 0.0
2014-Jul-18 08:27N 35°55' E 140°41'0 0.0
2014-Jul-18 07:33N 35°55' E 140°41'0 0.0
2014-Jul-18 06:08N 35°55' E 140°41'0 0.0
2014-Jul-18 05:29N 35°55' E 140°41'0 0.0
2014-Jul-18 04:32N 35°55' E 140°41'0 0.0
2014-Jul-18 03:32N 35°55' E 140°41'0 0.0
2014-Jul-18 02:32N 35°55' E 140°41'0 0.0
2014-Jul-18 00:29N 35°55' E 140°41'0 0.0
2014-Jul-17 23:32N 35°55' E 140°41'0 0.0
2014-Jul-17 22:29N 35°55' E 140°41'0 0.0
2014-Jul-17 21:29N 35°55' E 140°41'0 0.0
2014-Jul-17 20:30N 35°55' E 140°41'0 0.0
2014-Jul-17 19:33N 35°55' E 140°41'0 0.0
2014-Jul-17 18:33N 35°55' E 140°41'0 0.0
2014-Jul-17 17:27N 35°55' E 140°41'0 0.0
2014-Jul-17 16:24N 35°55' E 140°41'0 0.0
2014-Jul-17 15:33N 35°55' E 140°41'0 0.0
2014-Jul-17 14:33N 35°55' E 140°41'0 0.0
2014-Jul-17 13:33N 35°55' E 140°41'0 0.0
2014-Jul-17 12:33N 35°55' E 140°41'0 0.0
2014-Jul-17 10:33N 35°55' E 140°41'0 0.0
2014-Jul-17 09:30N 35°55' E 140°41'0 0.0
2014-Jul-17 08:30N 35°55' E 140°41'0 0.0
2014-Jul-17 07:09N 35°55' E 140°41'0 0.0
2014-Jul-17 06:27N 35°55' E 140°41'0 0.0
2014-Jul-17 05:30N 35°55' E 140°41'0 0.0
2014-Jul-17 04:33N 35°55' E 140°41'0 0.0
2014-Jul-17 03:30N 35°55' E 140°41'0 0.0
2014-Jul-17 02:33N 35°55' E 140°41'0 0.0
2014-Jul-16 20:09N 35°55' E 140°41'0 0.0
2014-Jul-16 19:33N 35°55' E 140°41'0 0.0
2014-Jul-16 16:06N 35°55' E 140°41'0 0.0
2014-Jul-16 15:27N 35°55' E 140°41'0 0.0
2014-Jul-16 14:27N 35°55' E 140°41'0 0.0
2014-Jul-16 13:33N 35°55' E 140°41'0 0.0
2014-Jul-16 12:24N 35°55' E 140°41'0 0.0
2014-Jul-16 11:12N 35°55' E 140°41'0 0.0
2014-Jul-16 08:06N 35°55' E 140°41'0 0.0
2014-Jul-16 06:27N 35°55' E 140°41'0 0.0
2014-Jul-16 05:33N 35°55' E 140°41'0 0.0
2014-Jul-16 00:21N 35°55' E 140°41'0 0.0
2014-Jul-15 22:33N 35°55' E 140°41'0 0.0
2014-Jul-15 21:33N 35°55' E 140°41'0 0.0
2014-Jul-15 20:15N 35°55' E 140°41'0 0.0
2014-Jul-15 19:24N 35°55' E 140°41'0 0.0
2014-Jul-15 18:33N 35°55' E 140°41'0 0.0
2014-Jul-15 17:33N 35°55' E 140°41'0 0.0
2014-Jul-15 16:33N 35°55' E 140°41'0 0.0
2014-Jul-15 15:33N 35°55' E 140°41'0 0.0
2014-Jul-15 14:21N 35°55' E 140°41'0 0.0
2014-Jul-15 13:33N 35°55' E 140°41'0 0.0
2014-Jul-15 12:27N 35°55' E 140°41'0 0.0
2014-Jul-15 11:27N 35°55' E 140°41'0 0.0
2014-Jul-15 10:21N 35°55' E 140°41'0 0.0
2014-Jul-15 09:18N 35°55' E 140°41'0 0.0
2014-Jul-15 07:33N 35°55' E 140°41'0 0.0
2014-Jul-15 05:12N 35°55' E 140°41'0 0.0
2014-Jul-15 02:12N 35°55' E 140°41'0 0.0
2014-Jul-15 01:21N 35°55' E 140°41'0 0.0
2014-Jul-14 20:27N 35°55' E 140°41'0 0.0
2014-Jul-14 16:15N 35°55' E 140°41'0 0.0
2014-Jul-14 15:27N 35°55' E 140°41'0 0.0
2014-Jul-14 14:27N 35°55' E 140°41'0 0.0
2014-Jul-14 11:21N 35°55' E 140°41'0 0.0
2014-Jul-14 10:33N 35°55' E 140°41'0 0.0
2014-Jul-14 09:33N 35°55' E 140°41'0 0.0
2014-Jul-14 08:27N 35°55' E 140°41'0 0.0
2014-Jul-14 07:09N 35°55' E 140°41'0 0.0
2014-Jul-14 02:03N 35°55' E 140°41'0 0.0
2014-Jul-13 21:15N 35°55' E 140°41'0 0.0
2014-Jul-13 20:27N 35°55' E 140°41'0 0.0
2014-Jul-13 18:21N 35°55' E 140°41'0 0.0
2014-Jul-13 17:18N 35°55' E 140°41'0 0.0
2014-Jul-13 16:33N 35°55' E 140°41'0 0.0
2014-Jul-13 12:06N 35°55' E 140°41'0 0.0
2014-Jul-13 08:21N 35°55' E 140°41'0 0.0
2014-Jul-13 07:24N 35°55' E 140°41'0 0.0
2014-Jul-13 06:33N 35°55' E 140°41'0 0.0
2014-Jul-13 05:33N 35°55' E 140°41'0 0.0
2014-Jul-13 04:21N 35°55' E 140°41'0 0.0
2014-Jul-13 03:21N 35°55' E 140°41'0 0.0
2014-Jul-13 02:33N 35°55' E 140°41'0 0.0
2014-Jul-13 01:27N 35°55' E 140°41'0 0.0
2014-Jul-13 00:33N 35°55' E 140°41'0 0.0
2014-Jul-12 23:09N 35°55' E 140°41'0 0.0
2014-Jul-12 22:33N 35°55' E 140°41'0 0.0
2014-Jul-12 21:30N 35°55' E 140°41'0 0.0
2014-Jul-12 20:33N 35°55' E 140°41'0 0.0
2014-Jul-12 19:27N 35°55' E 140°41'0 0.0
2014-Jul-12 18:33N 35°55' E 140°41'0 0.0
2014-Jul-12 17:30N 35°55' E 140°41'0 0.0
2014-Jul-12 16:33N 35°55' E 140°41'0 0.0
2014-Jul-12 15:24N 35°55' E 140°41'0 0.0
2014-Jul-12 14:06N 35°55' E 140°41'0 0.0
2014-Jul-12 13:21N 35°55' E 140°41'0 0.0
2014-Jul-12 12:30N 35°55' E 140°41'0 0.0
2014-Jul-12 11:33N 35°55' E 140°41'0 0.0
2014-Jul-12 10:33N 35°55' E 140°41'0 0.0
2014-Jul-12 09:15N 35°55' E 140°41'0 0.0
2014-Jul-12 08:27N 35°55' E 140°41'0 0.0
2014-Jul-12 07:30N 35°55' E 140°41'0 0.0
2014-Jul-12 06:21N 35°55' E 140°41'0 0.0
2014-Jul-12 05:27N 35°55' E 140°41'0 0.0
2014-Jul-12 04:15N 35°55' E 140°41'0 0.0
2014-Jul-12 03:27N 35°55' E 140°41'0 0.5
2014-Jul-12 02:33N 35°55' E 140°41'8 7.5
2014-Jul-12 01:33N 36°01' E 140°48'1 0.4
2014-Jul-11 23:16N 36°00' E 140°49'0 0.1
2014-Jul-11 22:31N 36°00' E 140°49'0 0.1
2014-Jul-11 21:31N 36°01' E 140°49'0 0.1
2014-Jul-11 20:28N 36°00' E 140°49'0 0.0
2014-Jul-11 19:31N 36°00' E 140°49'0 0.0
2014-Jul-11 18:31N 36°00' E 140°49'0 0.1
2014-Jul-11 17:28N 36°01' E 140°49'0 0.1
2014-Jul-11 16:31N 36°01' E 140°49'0 0.0
2014-Jul-11 15:25N 36°01' E 140°49'0 0.1
2014-Jul-11 14:25N 36°01' E 140°49'0 0.0
2014-Jul-11 13:28N 36°01' E 140°49'0 0.0
2014-Jul-11 12:28N 36°01' E 140°49'0 0.0
2014-Jul-11 11:34N 36°01' E 140°49'0 0.1
2014-Jul-11 10:31N 36°01' E 140°49'0 0.0
2014-Jul-11 09:31N 36°01' E 140°49'0 0.1
2014-Jul-11 08:28N 36°01' E 140°49'0 0.0
2014-Jul-11 07:31N 36°01' E 140°49'0 0.0
2014-Jul-11 06:28N 36°01' E 140°49'0 0.2
2014-Jul-11 05:33N 36°00' E 140°49'6 5.5
2014-Jul-11 04:33N 35°59' E 140°55'1 1.0
2014-Jul-11 03:33N 35°58' E 140°56'5 2.4
2014-Jul-11 01:26N 36°00' E 141°02'1 0.1
2014-Jul-10 10:31N 36°00' E 141°03'7 2.3
2014-Jul-10 07:23N 35°58' E 140°55'6 5.1
2014-Jul-10 06:13N 36°01' E 140°49'0 0.0
2014-Jul-10 05:25N 36°01' E 140°49'0 0.0
2014-Jul-10 04:07N 36°01' E 140°49'0 0.0
2014-Jul-10 01:13N 36°00' E 140°49'0 0.1
2014-Jul-09 23:31N 36°00' E 140°49'0 0.0
2014-Jul-09 22:07N 36°00' E 140°49'0 0.1
2014-Jul-09 20:25N 36°00' E 140°49'0 0.0
2014-Jul-09 19:31N 36°00' E 140°49'0 0.0
2014-Jul-09 17:19N 36°00' E 140°49'0 0.1
2014-Jul-09 16:31N 36°00' E 140°49'  
Track history (hours):
 
Tides and Currents Weather Stations Pressure Air Temp Water Temp Dewpoint Dewpoint Depression Visibility Wind Speed Wind Dir Waves Ship Positions

Dubai Fortune

Last reported at 2014-Jul-19 16:09 UTC. Time now 2014-Jul-22 23:39 UTC.
Position N 34°15' E 139°28'.

Length 188 m; draft 11.8 m.

Type: Cargo ship. MMSI: 353316000.

Date/timePositionNaut miles runAvg speedWind from/ knotsBaromVisibWave heightAir tempDewpointWater temp
2014-Jul-19 16:09N 34°15' E 139°28'9 9.0
2014-Jul-19 15:09N 34°21' E 139°37'610.0
2014-Jul-19 14:32N 34°25' E 139°42'1310.9
2014-Jul-19 13:21N 34°33' E 139°54'7 9.0
2014-Jul-19 12:33N 34°38' E 140°01'1110.1
2014-Jul-19 11:27N 34°45' E 140°11'1011.4
2014-Jul-19 10:33N 34°52' E 140°21'3311.0
2014-Jul-19 07:33N 35°16' E 140°48'10 9.4
2014-Jul-19 06:32N 35°24' E 140°55'9 8.7
2014-Jul-19 05:31N 35°31' E 141°02'19 9.0
2014-Jul-19 03:27N 35°49' E 141°07'1111.6
2014-Jul-19 02:33N 35°58' E 141°00'9 9.5
2014-Jul-19 01:33N 36°00' E 140°49'6 5.7
2014-Jul-19 00:33N 35°57' E 140°43'3 2.5
2014-Jul-18 23:30N 35°55' E 140°41'0 0.0
2014-Jul-18 22:15N 35°55' E 140°41'0 0.0
2014-Jul-18 21:33N 35°55' E 140°41'0 0.0
2014-Jul-18 20:33N 35°55' E 140°41'0 0.0
2014-Jul-18 19:33N 35°55' E 140°41'0 0.0
2014-Jul-18 18:33N 35°55' E 140°41'0 0.0
2014-Jul-18 17:12N 35°55' E 140°41'0 0.0
2014-Jul-18 16:33N 35°55' E 140°41'0 0.0
2014-Jul-18 15:30N 35°55' E 140°41'0 0.0
2014-Jul-18 14:21N 35°55' E 140°41'0 0.0
2014-Jul-18 13:33N 35°55' E 140°41'0 0.0
2014-Jul-18 12:06N 35°55' E 140°41'0 0.0
2014-Jul-18 11:15N 35°55' E 140°41'0 0.0
2014-Jul-18 10:30N 35°55' E 140°41'0 0.0
2014-Jul-18 09:27N 35°55' E 140°41'0 0.0
2014-Jul-18 08:27N 35°55' E 140°41'0 0.0
2014-Jul-18 07:33N 35°55' E 140°41'0 0.0
2014-Jul-18 06:08N 35°55' E 140°41'0 0.0
2014-Jul-18 05:29N 35°55' E 140°41'0 0.0
2014-Jul-18 04:32N 35°55' E 140°41'0 0.0
2014-Jul-18 03:32N 35°55' E 140°41'0 0.0
2014-Jul-18 02:32N 35°55' E 140°41'0 0.0
2014-Jul-18 00:29N 35°55' E 140°41'0 0.0
2014-Jul-17 23:32N 35°55' E 140°41'0 0.0
2014-Jul-17 22:29N 35°55' E 140°41'0 0.0
2014-Jul-17 21:29N 35°55' E 140°41'0 0.0
2014-Jul-17 20:30N 35°55' E 140°41'0 0.0
2014-Jul-17 19:33N 35°55' E 140°41'0 0.0
2014-Jul-17 18:33N 35°55' E 140°41'0 0.0
2014-Jul-17 17:27N 35°55' E 140°41'0 0.0
2014-Jul-17 16:24N 35°55' E 140°41'0 0.0
2014-Jul-17 15:33N 35°55' E 140°41'0 0.0
2014-Jul-17 14:33N 35°55' E 140°41'0 0.0
2014-Jul-17 13:33N 35°55' E 140°41'0 0.0
2014-Jul-17 12:33N 35°55' E 140°41'0 0.0
2014-Jul-17 10:33N 35°55' E 140°41'0 0.0
2014-Jul-17 09:30N 35°55' E 140°41'0 0.0
2014-Jul-17 08:30N 35°55' E 140°41'0 0.0
2014-Jul-17 07:09N 35°55' E 140°41'0 0.0
2014-Jul-17 06:27N 35°55' E 140°41'0 0.0
2014-Jul-17 05:30N 35°55' E 140°41'0 0.0
2014-Jul-17 04:33N 35°55' E 140°41'0 0.0
2014-Jul-17 03:30N 35°55' E 140°41'0 0.0
2014-Jul-17 02:33N 35°55' E 140°41'0 0.0
2014-Jul-16 20:09N 35°55' E 140°41'0 0.0
2014-Jul-16 19:33N 35°55' E 140°41'0 0.0
2014-Jul-16 16:06N 35°55' E 140°41'0 0.0
2014-Jul-16 15:27N 35°55' E 140°41'0 0.0
2014-Jul-16 14:27N 35°55' E 140°41'0 0.0
2014-Jul-16 13:33N 35°55' E 140°41'0 0.0
2014-Jul-16 12:24N 35°55' E 140°41'0 0.0
2014-Jul-16 11:12N 35°55' E 140°41'0 0.0
2014-Jul-16 08:06N 35°55' E 140°41'0 0.0
2014-Jul-16 06:27N 35°55' E 140°41'0 0.0
2014-Jul-16 05:33N 35°55' E 140°41'0 0.0
2014-Jul-16 00:21N 35°55' E 140°41'0 0.0
2014-Jul-15 22:33N 35°55' E 140°41'0 0.0
2014-Jul-15 21:33N 35°55' E 140°41'0 0.0
2014-Jul-15 20:15N 35°55' E 140°41'0 0.0
2014-Jul-15 19:24N 35°55' E 140°41'0 0.0
2014-Jul-15 18:33N 35°55' E 140°41'0 0.0
2014-Jul-15 17:33N 35°55' E 140°41'0 0.0
2014-Jul-15 16:33N 35°55' E 140°41'0 0.0
2014-Jul-15 15:33N 35°55' E 140°41'0 0.0
2014-Jul-15 14:21N 35°55' E 140°41'0 0.0
2014-Jul-15 13:33N 35°55' E 140°41'0 0.0
2014-Jul-15 12:27N 35°55' E 140°41'0 0.0
2014-Jul-15 11:27N 35°55' E 140°41'0 0.0
2014-Jul-15 10:21N 35°55' E 140°41'0 0.0
2014-Jul-15 09:18N 35°55' E 140°41'0 0.0
2014-Jul-15 07:33N 35°55' E 140°41'0 0.0
2014-Jul-15 05:12N 35°55' E 140°41'0 0.0
2014-Jul-15 02:12N 35°55' E 140°41'0 0.0
2014-Jul-15 01:21N 35°55' E 140°41'0 0.0
2014-Jul-14 20:27N 35°55' E 140°41'0 0.0
2014-Jul-14 16:15N 35°55' E 140°41'0 0.0
2014-Jul-14 15:27N 35°55' E 140°41'0 0.0
2014-Jul-14 14:27N 35°55' E 140°41'0 0.0
2014-Jul-14 11:21N 35°55' E 140°41'0 0.0
2014-Jul-14 10:33N 35°55' E 140°41'0 0.0
2014-Jul-14 09:33N 35°55' E 140°41'0 0.0
2014-Jul-14 08:27N 35°55' E 140°41'0 0.0
2014-Jul-14 07:09N 35°55' E 140°41'0 0.0
2014-Jul-14 02:03N 35°55' E 140°41'0 0.0
2014-Jul-13 21:15N 35°55' E 140°41'0 0.0
2014-Jul-13 20:27N 35°55' E 140°41'0 0.0
2014-Jul-13 18:21N 35°55' E 140°41'0 0.0
2014-Jul-13 17:18N 35°55' E 140°41'0 0.0
2014-Jul-13 16:33N 35°55' E 140°41'0 0.0
2014-Jul-13 12:06N 35°55' E 140°41'0 0.0
2014-Jul-13 08:21N 35°55' E 140°41'0 0.0
2014-Jul-13 07:24N 35°55' E 140°41'0 0.0
2014-Jul-13 06:33N 35°55' E 140°41'0 0.0
2014-Jul-13 05:33N 35°55' E 140°41'0 0.0
2014-Jul-13 04:21N 35°55' E 140°41'0 0.0
2014-Jul-13 03:21N 35°55' E 140°41'0 0.0
2014-Jul-13 02:33N 35°55' E 140°41'0 0.0
2014-Jul-13 01:27N 35°55' E 140°41'0 0.0
2014-Jul-13 00:33N 35°55' E 140°41'0 0.0
2014-Jul-12 23:09N 35°55' E 140°41'0 0.0
2014-Jul-12 22:33N 35°55' E 140°41'0 0.0
2014-Jul-12 21:30N 35°55' E 140°41'0 0.0
2014-Jul-12 20:33N 35°55' E 140°41'0 0.0
2014-Jul-12 19:27N 35°55' E 140°41'0 0.0
2014-Jul-12 18:33N 35°55' E 140°41'0 0.0
2014-Jul-12 17:30N 35°55' E 140°41'0 0.0
2014-Jul-12 16:33N 35°55' E 140°41'0 0.0
2014-Jul-12 15:24N 35°55' E 140°41'0 0.0
2014-Jul-12 14:06N 35°55' E 140°41'0 0.0
2014-Jul-12 13:21N 35°55' E 140°41'0 0.0
2014-Jul-12 12:30N 35°55' E 140°41'0 0.0
2014-Jul-12 11:33N 35°55' E 140°41'0 0.0
2014-Jul-12 10:33N 35°55' E 140°41'0 0.0
2014-Jul-12 09:15N 35°55' E 140°41'0 0.0
2014-Jul-12 08:27N 35°55' E 140°41'0 0.0
2014-Jul-12 07:30N 35°55' E 140°41'0 0.0
2014-Jul-12 06:21N 35°55' E 140°41'0 0.0
2014-Jul-12 05:27N 35°55' E 140°41'0 0.0
2014-Jul-12 04:15N 35°55' E 140°41'0 0.0
2014-Jul-12 03:27N 35°55' E 140°41'0 0.5
2014-Jul-12 02:33N 35°55' E 140°41'8 7.5
2014-Jul-12 01:33N 36°01' E 140°48'1 0.4
2014-Jul-11 23:16N 36°00' E 140°49'0 0.1
2014-Jul-11 22:31N 36°00' E 140°49'0 0.1
2014-Jul-11 21:31N 36°01' E 140°49'0 0.1
2014-Jul-11 20:28N 36°00' E 140°49'0 0.0
2014-Jul-11 19:31N 36°00' E 140°49'0 0.0
2014-Jul-11 18:31N 36°00' E 140°49'0 0.1
2014-Jul-11 17:28N 36°01' E 140°49'0 0.1
2014-Jul-11 16:31N 36°01' E 140°49'0 0.0
2014-Jul-11 15:25N 36°01' E 140°49'0 0.1
2014-Jul-11 14:25N 36°01' E 140°49'0 0.0
2014-Jul-11 13:28N 36°01' E 140°49'0 0.0
2014-Jul-11 12:28N 36°01' E 140°49'0 0.0
2014-Jul-11 11:34N 36°01' E 140°49'0 0.1
2014-Jul-11 10:31N 36°01' E 140°49'0 0.0
2014-Jul-11 09:31N 36°01' E 140°49'0 0.1
2014-Jul-11 08:28N 36°01' E 140°49'0 0.0
2014-Jul-11 07:31N 36°01' E 140°49'0 0.0
2014-Jul-11 06:28N 36°01' E 140°49'0 0.2
2014-Jul-11 05:33N 36°00' E 140°49'6 5.5
2014-Jul-11 04:33N 35°59' E 140°55'1 1.0
2014-Jul-11 03:33N 35°58' E 140°56'5 2.4
2014-Jul-11 01:26N 36°00' E 141°02'1 0.1
2014-Jul-10 10:31N 36°00' E 141°03'7 2.3
2014-Jul-10 07:23N 35°58' E 140°55'6 5.1
2014-Jul-10 06:13N 36°01' E 140°49'0 0.0
2014-Jul-10 05:25N 36°01' E 140°49'0 0.0
2014-Jul-10 04:07N 36°01' E 140°49'0 0.0
2014-Jul-10 01:13N 36°00' E 140°49'0 0.1
2014-Jul-09 23:31N 36°00' E 140°49'0 0.0
2014-Jul-09 22:07N 36°00' E 140°49'0 0.1
2014-Jul-09 20:25N 36°00' E 140°49'0 0.0
2014-Jul-09 19:31N 36°00' E 140°49'0 0.0
2014-Jul-09 17:19N 36°00' E 140°49'0 0.1
2014-Jul-09 16:31N 36°00' E 140°49'  

Dump ship's entire track history